Terminal Aerodrome Forecast
Issued by NWS Duluth, MN

Home | Current Version | Previous Version | Text Only | Print | Product List | Glossary On
Versions: 1 2 3 4 5 6 7 8 9 10 11 12 13 14 15 16 17
000
FTUS43 KDLH 251138
TAFINL
TAF
KINL 251138Z 2512/2612 30007KT P6SM FEW045
     FM251600 29008KT P6SM SCT025 BKN045
     FM252000 28010G16KT P6SM VCSH SCT018 OVC040
     FM260000 27005KT 6SM -SN SCT015 OVC035
      TEMPO 2608/2612 4SM -SN BKN015 OVC035=

USA.gov is the U.S. government's official web portal to all federal, state and local government web resources and services.